Terminal Aerodrome Forecast
Issued by NWS

Home | Current Version | Previous Version | Text Only | Print | Product List | Glossary On
Versions: 1 2 3 4 5 6 7 8 9 10 11 12 13 14 15 16 17
000
FTUS45 KABQ 291808 AAA
TAFTCC
TAF AMD
KTCC 291808Z 2918/3018 VRB05KT P6SM VCTS SCT050CB OVC100
      TEMPO 2918/2920 VRB10G20KT -SHRA BKN040
     FM292000 19012G22KT P6SM SCT070
     FM292200 21016G26KT P6SM VCTS SCT080CB BKN140
      TEMPO 2922/2924 VRB30G40KT SHRA BKN070
     FM300000 19011KT P6SM VCSH SCT090 BKN120
     FM300200 12015KT P6SM SCT110
     FM301100 14007KT P6SM BKN020
     FM301700 20013KT P6SM SKC=

USA.gov is the U.S. government's official web portal to all federal, state and local government web resources and services.